createdAt,value
2023-05-08T00:00:17.941Z,14.18
2023-05-08T00:03:14.579Z,13.59
2023-05-08T00:06:13.007Z,13.13
2023-05-08T00:09:09.597Z,12.77
2023-05-08T00:12:06.174Z,12.91
2023-05-08T00:15:02.709Z,12.6
2023-05-08T00:17:59.451Z,12.45
2023-05-08T00:20:55.841Z,12.17
2023-05-08T00:23:53.391Z,12.1
2023-05-08T00:26:48.985Z,12.33
2023-05-08T00:29:44.518Z,12.5
2023-05-08T00:32:40.136Z,12.71
2023-05-08T00:35:35.633Z,12.36
2023-05-08T00:38:32.186Z,12.28
2023-05-08T00:41:27.797Z,12.37
2023-05-08T00:44:23.339Z,12.42
2023-05-08T00:47:20.902Z,12.77
2023-05-08T00:50:20.436Z,12.05
2023-05-08T00:53:17.007Z,11.89
2023-05-08T00:56:14.532Z,11.85
2023-05-08T00:59:13.089Z,12.16
2023-05-08T01:02:10.761Z,11.82
2023-05-08T01:05:07.216Z,11.52
2023-05-08T01:08:03.784Z,11.77
2023-05-08T01:11:09.311Z,11.84
2023-05-08T01:14:16.804Z,12.03
2023-05-08T01:17:21.394Z,12.1
2023-05-08T01:20:34.906Z,12.31
2023-05-08T01:23:47.442Z,12.08
2023-05-08T01:26:58.948Z,11.96
2023-05-08T01:30:20.486Z,11.76
2023-05-08T01:33:25.111Z,11.72
2023-05-08T01:36:25.546Z,11.83
2023-05-08T01:39:32.040Z,11.59
2023-05-08T01:42:36.610Z,11.49
2023-05-08T01:45:39.190Z,11.47
2023-05-08T01:48:43.681Z,11.71
2023-05-08T01:51:46.254Z,11.74
2023-05-08T01:54:48.718Z,11.43
2023-05-08T01:57:48.329Z,11.79
2023-05-08T02:00:45.905Z,11.62
2023-05-08T02:03:43.470Z,11.7
2023-05-08T02:06:40.991Z,11.66
2023-05-08T02:09:39.539Z,11.95
2023-05-08T02:12:37.146Z,11.39
2023-05-08T02:15:36.651Z,11.88
2023-05-08T02:18:33.223Z,12.07
2023-05-08T02:21:31.776Z,11.97
2023-05-08T02:24:30.306Z,11.88
2023-05-08T02:27:28.857Z,11.65
2023-05-08T02:30:26.438Z,11.93
2023-05-08T02:33:23.966Z,11.91
2023-05-08T02:36:23.571Z,11.52
2023-05-08T02:39:26.086Z,10.97
2023-05-08T02:42:21.655Z,11.44
2023-05-08T02:45:18.190Z,11.42
2023-05-08T02:48:22.734Z,11.3
2023-05-08T02:51:26.273Z,11.17
2023-05-08T02:54:29.820Z,11.28
2023-05-08T02:57:37.350Z,10.8
2023-05-08T03:00:40.892Z,10.83
2023-05-08T03:03:42.660Z,10.66
2023-05-08T03:06:44.970Z,10.78
2023-05-08T03:09:46.480Z,10.88
2023-05-08T03:12:46.128Z,11.22
2023-05-08T03:15:48.681Z,11.07
2023-05-08T03:18:49.143Z,10.94
2023-05-08T03:21:47.770Z,11
2023-05-08T03:24:47.281Z,10.92
2023-05-08T03:27:44.814Z,10.59
2023-05-08T03:30:42.396Z,10.84
2023-05-08T03:33:40.945Z,10.91
2023-05-08T03:36:37.507Z,11.16
2023-05-08T03:39:34.050Z,10.76
2023-05-08T03:42:30.580Z,10.67
2023-05-08T03:45:27.181Z,10.35
2023-05-08T03:48:26.717Z,10.32
2023-05-08T03:51:22.251Z,9.52
2023-05-08T03:54:17.839Z,9.93
2023-05-08T03:57:13.443Z,9.72
2023-05-08T04:00:19.985Z,10.11
2023-05-08T04:03:23.621Z,9.75
2023-05-08T04:06:30.636Z,9.95
2023-05-08T04:09:37.580Z,10.19
2023-05-08T04:12:40.206Z,9.99
2023-05-08T04:15:38.632Z,9.85
2023-05-08T04:18:42.168Z,9.52
2023-05-08T04:21:42.770Z,9.4
2023-05-08T04:24:43.288Z,9.88
2023-05-08T04:27:40.857Z,9.57
2023-05-08T04:30:39.430Z,9.86
2023-05-08T04:33:38.034Z,10.02
2023-05-08T04:36:34.519Z,10.29
2023-05-08T04:39:30.097Z,10.24
2023-05-08T04:42:27.662Z,10.17
2023-05-08T04:45:24.208Z,9.96
2023-05-08T04:48:19.791Z,10.25
2023-05-08T04:51:15.325Z,10.25
2023-05-08T04:54:10.902Z,10.3
2023-05-08T04:57:08.451Z,10.35
2023-05-08T05:00:06.061Z,9.87
2023-05-08T05:03:01.603Z,9.98
2023-05-08T05:05:58.113Z,10.46
2023-05-08T05:08:54.680Z,9.97
2023-05-08T05:11:50.257Z,10.21
2023-05-08T05:14:45.796Z,10.29
2023-05-08T05:17:41.431Z,10.19
2023-05-08T05:20:38.931Z,10.33
2023-05-08T05:23:34.492Z,10.5
2023-05-08T05:26:30.036Z,10.34
2023-05-08T05:29:25.595Z,10.41
2023-05-08T05:32:21.223Z,10.55
2023-05-08T05:35:16.721Z,10.51
2023-05-08T05:38:12.297Z,10.52
2023-05-08T05:41:07.853Z,10.65
2023-05-08T05:44:05.419Z,10.87
2023-05-08T05:47:05.039Z,10.85
2023-05-08T05:50:00.550Z,10.72
2023-05-08T05:52:56.089Z,11.03
2023-05-08T05:55:52.658Z,11.21
2023-05-08T05:58:48.226Z,11.04
2023-05-08T06:01:43.822Z,11.17
2023-05-08T06:04:39.326Z,11.27
2023-05-08T06:07:35.931Z,11.07
2023-05-08T06:10:32.452Z,11.34
2023-05-08T06:13:28.075Z,11.72
2023-05-08T06:16:27.610Z,11.48
2023-05-08T06:19:24.178Z,11.48
2023-05-08T06:22:22.683Z,11.72
2023-05-08T06:25:19.958Z,11.67
2023-05-08T06:28:15.796Z,11.58
2023-05-08T06:31:11.424Z,11.46
2023-05-08T06:34:07.932Z,11.7
2023-05-08T06:37:03.464Z,12.02
2023-05-08T06:40:11.035Z,11.79
2023-05-08T06:42:59.541Z,12.24
2023-05-08T06:45:55.197Z,12.24
2023-05-08T06:48:50.714Z,12.28
2023-05-08T06:51:46.277Z,12.46
2023-05-08T06:54:41.840Z,12.52
2023-05-08T06:57:37.457Z,12.53
2023-05-08T07:00:32.933Z,12.78
2023-05-08T07:03:28.542Z,13.01
2023-05-08T07:06:24.124Z,12.96
2023-05-08T07:09:19.646Z,12.98
2023-05-08T07:12:16.188Z,13.01
2023-05-08T07:15:25.338Z,13.11
2023-05-08T07:18:18.245Z,13.58
2023-05-08T07:21:15.884Z,13.9
2023-05-08T07:24:12.430Z,14.4
2023-05-08T07:27:07.978Z,14.45
2023-05-08T07:30:04.540Z,14.73
2023-05-08T07:33:00.137Z,14.98
2023-05-08T07:35:55.656Z,15.02
2023-05-08T07:38:51.228Z,14.41
2023-05-08T07:41:49.619Z,14.42
2023-05-08T07:44:53.714Z,14.65
2023-05-08T07:47:48.910Z,14.94
2023-05-08T07:50:44.411Z,14.48
2023-05-08T07:53:41.001Z,14.77
2023-05-08T07:56:37.530Z,15.01
2023-05-08T07:59:33.082Z,15.09
2023-05-08T08:02:28.709Z,15.11
2023-05-08T08:05:24.273Z,15.08
2023-05-08T08:08:19.754Z,15.07
2023-05-08T08:11:16.372Z,15.19
2023-05-08T08:14:11.908Z,15.46
2023-05-08T08:17:07.604Z,15.33
2023-05-08T08:20:04.234Z,15.42
2023-05-08T08:22:59.577Z,15.52
2023-05-08T08:25:56.119Z,15.58
2023-05-08T08:28:51.756Z,16.01
2023-05-08T08:31:48.290Z,15.99
2023-05-08T08:34:43.885Z,16.07
2023-05-08T08:37:39.420Z,16.08
2023-05-08T08:40:38.955Z,16.2
2023-05-08T08:43:34.580Z,16.31
2023-05-08T08:46:33.106Z,16.57
2023-05-08T08:49:31.621Z,16.67
2023-05-08T08:52:32.188Z,16.75
2023-05-08T08:55:30.731Z,16.88
2023-05-08T08:58:38.677Z,17.27
2023-05-08T09:01:38.827Z,17
2023-05-08T09:04:34.382Z,16.92
2023-05-08T09:07:29.946Z,17.68
2023-05-08T09:10:26.500Z,17.26
2023-05-08T09:13:23.130Z,16.99
2023-05-08T09:16:18.678Z,17.19
2023-05-08T09:19:16.172Z,17.58
2023-05-08T09:22:12.751Z,18.02
2023-05-08T09:25:19.312Z,17.84
2023-05-08T09:28:15.861Z,17.51
2023-05-08T09:34:24.949Z,18.18
2023-05-08T09:37:21.476Z,18.31
2023-05-08T09:40:21.210Z,18.26
2023-05-08T09:43:16.586Z,18.2
2023-05-08T09:46:21.136Z,18.16
2023-05-08T09:49:18.661Z,18.09
2023-05-08T09:52:21.233Z,18.61
2023-05-08T09:55:17.822Z,18.64
2023-05-08T09:58:19.301Z,18.38
2023-05-08T10:01:19.880Z,18.92
2023-05-08T10:04:24.410Z,18.87
2023-05-08T10:07:27.967Z,18.99
2023-05-08T10:10:30.485Z,18.88
2023-05-08T10:13:28.170Z,19.3
2023-05-08T13:28:07.944Z,22
2023-05-08T13:31:04.854Z,21.89
2023-05-08T13:34:04.011Z,22.84
2023-05-08T13:36:59.540Z,25.25
2023-05-08T13:39:55.126Z,24.54
2023-05-08T13:42:50.711Z,25.41
2023-05-08T13:45:46.275Z,24.83
2023-05-08T13:48:41.801Z,24.72
2023-05-08T13:51:39.399Z,23.5
2023-05-08T13:54:34.943Z,23.58
2023-05-08T13:57:30.500Z,23.99
2023-05-08T14:00:28.046Z,23.9
2023-05-08T14:03:23.727Z,25.11
2023-05-08T14:06:20.182Z,26.81
2023-05-08T14:09:16.756Z,25.36
2023-05-08T14:12:12.275Z,24.93
2023-05-08T14:15:08.863Z,26.73
2023-05-08T14:18:04.505Z,26.44
2023-05-08T14:20:59.991Z,27.95
2023-05-08T14:23:55.502Z,27.19
2023-05-08T14:26:52.099Z,27.12
2023-05-08T14:29:47.719Z,26.24
2023-05-08T14:32:43.298Z,27.87
2023-05-08T14:35:42.768Z,26.92
2023-05-08T14:38:38.340Z,28.94
2023-05-08T14:41:34.867Z,28.12
2023-05-08T14:44:30.553Z,28.18
2023-05-08T14:47:27.057Z,26.05
2023-05-08T14:50:23.575Z,25.09
2023-05-08T14:53:19.246Z,27.43
2023-05-08T14:56:14.898Z,27.02
2023-05-08T14:59:10.206Z,25.86
2023-05-08T15:02:06.813Z,24.81
2023-05-08T15:08:02.971Z,24.46
2023-05-08T15:10:59.490Z,22.8
2023-05-08T15:13:55.006Z,22.7
2023-05-08T15:16:50.645Z,23.33
2023-05-08T15:19:46.173Z,24.1
2023-05-08T15:22:41.716Z,23.23
2023-05-08T15:25:38.257Z,23.47
2023-05-08T15:28:33.841Z,22.84
2023-05-08T15:31:29.431Z,23.64
2023-05-08T15:34:29.056Z,26.3
2023-05-08T15:37:25.511Z,25.99
2023-05-08T15:40:22.075Z,25.47
2023-05-08T15:43:17.633Z,25.77
2023-05-08T15:46:13.261Z,23.89
2023-05-08T15:49:08.724Z,22.54
2023-05-08T15:52:04.365Z,24.29
2023-05-08T15:55:00.871Z,26.45
2023-05-08T15:57:58.416Z,25.51
2023-05-08T16:00:54.061Z,24.92
2023-05-08T16:03:49.618Z,24.78
2023-05-08T16:06:45.087Z,26.86
2023-05-08T16:09:41.713Z,26.73
2023-05-08T16:12:38.282Z,25.91
2023-05-08T16:15:33.812Z,28.09
2023-05-08T16:18:29.388Z,27.56
2023-05-08T16:21:26.932Z,27.51
2023-05-08T16:24:22.493Z,25.38
2023-05-08T16:27:18.035Z,25.63
2023-05-08T16:30:13.625Z,27.43
2023-05-08T16:33:12.162Z,26.09
2023-05-08T16:36:08.739Z,25.71
2023-05-08T16:39:04.280Z,25.33
2023-05-08T16:41:59.846Z,24.85
2023-05-08T16:44:55.382Z,24.05
2023-05-08T16:47:50.997Z,24.12
2023-05-08T16:50:46.556Z,23.64
2023-05-08T16:53:42.068Z,22.09
2023-05-08T16:56:38.659Z,21.16
2023-05-08T16:59:38.190Z,19.94
2023-05-08T17:02:33.943Z,19.2
2023-05-08T17:05:29.320Z,18.99
2023-05-08T17:08:26.883Z,19.78
2023-05-08T17:11:25.487Z,19.15
2023-05-08T17:14:21.021Z,18.89
2023-05-08T17:17:16.633Z,18.34
2023-05-08T17:20:14.463Z,18.05
2023-05-08T17:23:10.751Z,18.05
2023-05-08T17:26:07.240Z,17.84
2023-05-08T17:29:02.796Z,17.72
2023-05-08T17:31:59.659Z,17.49
2023-05-08T17:34:54.936Z,17.3
2023-05-08T17:37:50.500Z,17.27
2023-05-08T17:40:48.042Z,17.08
2023-05-08T17:43:43.598Z,17.01
2023-05-08T17:46:40.158Z,17.14
2023-05-08T17:49:35.711Z,16.84
2023-05-08T17:52:31.251Z,16.56
2023-05-08T17:55:26.796Z,16.8
2023-05-08T17:58:22.439Z,16.67
2023-05-08T18:01:18.032Z,16.77
2023-05-08T18:04:13.574Z,16.75
2023-05-08T18:07:09.076Z,16.9
2023-05-08T18:10:05.672Z,16.6
2023-05-08T18:13:05.233Z,16.53
2023-05-08T18:16:00.987Z,15.97
2023-05-08T18:18:56.280Z,15.86
2023-05-08T18:21:51.877Z,15.8
2023-05-08T18:24:49.496Z,15.52
2023-05-08T18:27:48.017Z,15.56
2023-05-08T18:30:45.629Z,15.5
2023-05-08T18:33:41.114Z,15.42
2023-05-08T18:36:38.658Z,15.37
2023-05-08T18:39:34.256Z,15.24
2023-05-08T18:42:30.794Z,15.46
2023-05-08T18:45:28.352Z,15.27
2023-05-08T18:48:25.916Z,15.02
2023-05-08T18:51:22.494Z,15.01
2023-05-08T18:54:18.020Z,15.09
2023-05-08T18:57:13.581Z,14.95
2023-05-08T19:00:10.165Z,14.96
2023-05-08T19:03:05.816Z,15
2023-05-08T19:06:01.280Z,14.9
2023-05-08T19:08:56.826Z,14.76
2023-05-08T19:11:53.388Z,14.68
2023-05-08T19:14:50.982Z,14.44
2023-05-08T19:17:46.509Z,14.36
2023-05-08T19:20:43.076Z,14.7
2023-05-08T19:23:38.616Z,14.46
2023-05-08T19:26:34.225Z,14.25
2023-05-08T19:29:29.778Z,14.08
2023-05-08T19:32:28.339Z,14.14
2023-05-08T19:35:24.901Z,14.08
2023-05-08T19:38:20.436Z,14.36
2023-05-08T19:41:17.990Z,14.05
2023-05-08T19:44:13.614Z,13.88
2023-05-08T19:47:09.097Z,13.8
2023-05-08T19:50:05.718Z,13.91
2023-05-08T19:53:01.245Z,13.77
2023-05-08T19:55:56.794Z,13.7
2023-05-08T19:58:52.353Z,13.54
2023-05-08T20:01:49.989Z,13.39
2023-05-08T20:07:44.049Z,13.35
2023-05-08T20:10:40.611Z,13.54
2023-05-08T20:13:42.103Z,13.21
2023-05-08T20:16:37.792Z,12.79
2023-05-08T20:19:33.265Z,13
2023-05-08T20:22:28.803Z,13.12
2023-05-08T20:25:24.367Z,12.96
2023-05-08T20:28:22.928Z,12.86
2023-05-08T20:31:18.510Z,12.78
2023-05-08T20:34:14.176Z,12.99
2023-05-08T20:37:09.638Z,13.08
2023-05-08T20:40:07.153Z,12.89
2023-05-08T20:43:02.729Z,12.98
2023-05-08T20:45:58.307Z,12.79
2023-05-08T20:48:54.861Z,12.82
2023-05-08T20:51:50.412Z,13.11
2023-05-08T20:54:47.957Z,13.26
2023-05-08T20:57:44.533Z,12.89
2023-05-08T21:00:42.091Z,12.77
2023-05-08T21:03:38.652Z,12.79
2023-05-08T21:06:34.213Z,12.89
2023-05-08T21:09:29.795Z,12.48
2023-05-08T21:12:25.326Z,12.2
2023-05-08T21:15:20.902Z,12.15
2023-05-08T21:18:16.426Z,12.34
2023-05-08T21:21:15.010Z,12.37
2023-05-08T21:24:10.564Z,12.19
2023-05-08T21:27:06.124Z,12.57
2023-05-08T21:30:01.662Z,12.76
2023-05-08T21:32:58.271Z,12.38
2023-05-08T21:35:53.768Z,12.19
2023-05-08T21:38:49.365Z,12.14
2023-05-08T21:41:45.964Z,12.57
2023-05-08T21:44:43.504Z,12.26
2023-05-08T21:47:40.066Z,12.27
2023-05-08T21:50:35.585Z,12.18
2023-05-08T21:53:32.194Z,12.29
2023-05-08T21:56:27.738Z,12.14
2023-05-08T21:59:23.291Z,11.86
2023-05-08T22:02:19.893Z,12.13
2023-05-08T22:05:15.716Z,11.98
2023-05-08T22:08:11.993Z,12.3
2023-05-08T22:11:07.576Z,12.28
2023-05-08T22:14:03.099Z,12.44
2023-05-08T22:16:58.715Z,12.34
2023-05-08T22:19:55.211Z,12.34
2023-05-08T22:22:51.813Z,12.07
2023-05-08T22:25:48.331Z,11.74
2023-05-08T22:28:43.924Z,11.88
2023-05-08T22:31:41.493Z,11.81
2023-05-08T22:34:37.000Z,11.73
2023-05-08T22:37:32.579Z,11.88
2023-05-08T22:40:28.172Z,11.99
2023-05-08T22:43:25.714Z,12.07
2023-05-08T22:46:22.331Z,11.92
2023-05-08T22:49:18.803Z,12.11
2023-05-08T22:52:14.383Z,12.01
2023-05-08T22:55:09.904Z,11.95
2023-05-08T22:58:05.490Z,12.06
2023-05-08T23:01:01.090Z,11.99
2023-05-08T23:03:56.675Z,11.64
2023-05-08T23:06:52.208Z,11.41
2023-05-08T23:09:47.752Z,11.12
2023-05-08T23:12:43.287Z,11.3
2023-05-08T23:15:40.844Z,11.69
2023-05-08T23:18:36.424Z,11.46
2023-05-08T23:33:44.161Z,11.07
2023-05-08T23:36:39.724Z,10.76
2023-05-08T23:39:40.284Z,10.58
2023-05-08T23:42:36.829Z,10.66
2023-05-08T23:45:32.370Z,10.3
2023-05-08T23:48:27.986Z,10.79
2023-05-08T23:51:24.518Z,10.74
2023-05-08T23:54:21.078Z,10.15
2023-05-08T23:57:16.611Z,10.18
